sensor_id;sensor_type;location;lat;lon;timestamp;pressure;altitude;pressure_sealevel;temperature;humidity
10310;BME280;5200;43.236;27.986;2023-04-28T00:00:07;100127.22;;;6.72;71.54
10310;BME280;5200;43.236;27.986;2023-04-28T00:02:34;100137.59;;;6.74;71.83
10310;BME280;5200;43.236;27.986;2023-04-28T00:05:01;100119.63;;;6.69;72.61
10310;BME280;5200;43.236;27.986;2023-04-28T00:07:27;100124.84;;;6.69;72.48
10310;BME280;5200;43.236;27.986;2023-04-28T00:09:54;100134.69;;;6.66;72.97
10310;BME280;5200;43.236;27.986;2023-04-28T00:12:22;100117.16;;;6.55;73.65
10310;BME280;5200;43.236;27.986;2023-04-28T00:14:50;100129.25;;;6.56;73.42
10310;BME280;5200;43.236;27.986;2023-04-28T00:17:17;100132.25;;;6.51;73.12
10310;BME280;5200;43.236;27.986;2023-04-28T00:19:43;100139.34;;;6.49;73.49
10310;BME280;5200;43.236;27.986;2023-04-28T00:22:10;100142.38;;;6.43;73.33
10310;BME280;5200;43.236;27.986;2023-04-28T00:24:37;100145.09;;;6.42;74.80
10310;BME280;5200;43.236;27.986;2023-04-28T00:27:06;100155.53;;;6.42;74.68
10310;BME280;5200;43.236;27.986;2023-04-28T00:29:33;100140.50;;;6.32;75.72
10310;BME280;5200;43.236;27.986;2023-04-28T00:32:01;100144.81;;;6.33;75.45
10310;BME280;5200;43.236;27.986;2023-04-28T00:34:27;100153.38;;;6.35;75.78
10310;BME280;5200;43.236;27.986;2023-04-28T00:36:58;100158.09;;;6.30;75.95
10310;BME280;5200;43.236;27.986;2023-04-28T00:39:24;100138.97;;;6.17;76.12
10310;BME280;5200;43.236;27.986;2023-04-28T00:41:52;100156.72;;;6.25;77.14
10310;BME280;5200;43.236;27.986;2023-04-28T00:44:18;100164.69;;;6.23;76.76
10310;BME280;5200;43.236;27.986;2023-04-28T00:46:45;100166.75;;;6.18;77.09
10310;BME280;5200;43.236;27.986;2023-04-28T00:49:15;100183.16;;;6.20;77.49
10310;BME280;5200;43.236;27.986;2023-04-28T00:51:42;100180.78;;;6.17;78.12
10310;BME280;5200;43.236;27.986;2023-04-28T00:54:12;100173.97;;;6.02;77.91
10310;BME280;5200;43.236;27.986;2023-04-28T00:56:39;100149.22;;;5.95;77.67
10310;BME280;5200;43.236;27.986;2023-04-28T00:59:06;100181.31;;;6.09;77.76
10310;BME280;5200;43.236;27.986;2023-04-28T01:01:34;100183.19;;;6.07;77.96
10310;BME280;5200;43.236;27.986;2023-04-28T01:04:01;100196.66;;;6.01;77.75
10310;BME280;5200;43.236;27.986;2023-04-28T01:06:29;100146.56;;;5.82;77.60
10310;BME280;5200;43.236;27.986;2023-04-28T01:08:57;100174.41;;;5.96;77.59
10310;BME280;5200;43.236;27.986;2023-04-28T01:11:24;100182.34;;;5.94;77.50
10310;BME280;5200;43.236;27.986;2023-04-28T01:13:50;100176.34;;;5.92;77.52
10310;BME280;5200;43.236;27.986;2023-04-28T01:16:17;100184.09;;;5.93;76.70
10310;BME280;5200;43.236;27.986;2023-04-28T01:18:46;100180.56;;;5.95;76.97
10310;BME280;5200;43.236;27.986;2023-04-28T01:21:14;100159.31;;;5.86;77.40
10310;BME280;5200;43.236;27.986;2023-04-28T01:23:48;100158.59;;;5.84;76.95
10310;BME280;5200;43.236;27.986;2023-04-28T01:26:16;100158.59;;;5.84;77.17
10310;BME280;5200;43.236;27.986;2023-04-28T01:28:43;100168.28;;;5.82;77.15
10310;BME280;5200;43.236;27.986;2023-04-28T01:31:10;100148.97;;;5.72;76.51
10310;BME280;5200;43.236;27.986;2023-04-28T01:33:36;100148.25;;;5.70;75.90
10310;BME280;5200;43.236;27.986;2023-04-28T01:36:04;100135.06;;;5.59;76.00
10310;BME280;5200;43.236;27.986;2023-04-28T01:38:30;100163.38;;;5.78;76.08
10310;BME280;5200;43.236;27.986;2023-04-28T01:40:59;100169.25;;;5.81;75.21
10310;BME280;5200;43.236;27.986;2023-04-28T01:43:26;100160.69;;;5.79;75.10
10310;BME280;5200;43.236;27.986;2023-04-28T01:45:53;100139.16;;;5.63;74.94
10310;BME280;5200;43.236;27.986;2023-04-28T01:48:20;100143.25;;;5.67;75.02
10310;BME280;5200;43.236;27.986;2023-04-28T01:50:47;100174.47;;;5.81;75.31
10310;BME280;5200;43.236;27.986;2023-04-28T01:53:14;100142.91;;;5.59;75.30
10310;BME280;5200;43.236;27.986;2023-04-28T01:55:45;100158.25;;;5.63;74.78
10310;BME280;5200;43.236;27.986;2023-04-28T01:58:13;100164.81;;;5.69;74.64
10310;BME280;5200;43.236;27.986;2023-04-28T02:00:40;100136.41;;;5.51;74.91
10310;BME280;5200;43.236;27.986;2023-04-28T02:03:07;100167.56;;;5.67;75.51
10310;BME280;5200;43.236;27.986;2023-04-28T02:05:33;100166.91;;;5.64;75.39
10310;BME280;5200;43.236;27.986;2023-04-28T02:08:00;100165.88;;;5.54;75.04
10310;BME280;5200;43.236;27.986;2023-04-28T02:10:27;100164.38;;;5.49;75.46
10310;BME280;5200;43.236;27.986;2023-04-28T02:12:54;100183.91;;;5.57;74.93
10310;BME280;5200;43.236;27.986;2023-04-28T02:15:22;100141.50;;;5.40;74.83
10310;BME280;5200;43.236;27.986;2023-04-28T02:17:49;100181.31;;;5.57;74.63
10310;BME280;5200;43.236;27.986;2023-04-28T02:20:16;100184.13;;;5.54;74.71
10310;BME280;5200;43.236;27.986;2023-04-28T02:22:42;100181.72;;;5.50;74.46
10310;BME280;5200;43.236;27.986;2023-04-28T02:25:09;100187.13;;;5.47;74.54
10310;BME280;5200;43.236;27.986;2023-04-28T02:27:36;100184.81;;;5.43;74.59
10310;BME280;5200;43.236;27.986;2023-04-28T02:30:04;100145.53;;;5.19;73.86
10310;BME280;5200;43.236;27.986;2023-04-28T02:32:32;100174.16;;;5.33;74.02
10310;BME280;5200;43.236;27.986;2023-04-28T02:34:59;100150.75;;;5.19;74.19
10310;BME280;5200;43.236;27.986;2023-04-28T02:37:26;100167.38;;;5.30;73.67
10310;BME280;5200;43.236;27.986;2023-04-28T02:39:53;100162.28;;;5.15;73.49
10310;BME280;5200;43.236;27.986;2023-04-28T02:42:19;100202.75;;;5.35;73.31
10310;BME280;5200;43.236;27.986;2023-04-28T02:44:46;100203.59;;;5.35;72.55
10310;BME280;5200;43.236;27.986;2023-04-28T02:47:13;100172.00;;;5.13;73.00
10310;BME280;5200;43.236;27.986;2023-04-28T02:49:41;100156.97;;;5.03;73.35
10310;BME280;5200;43.236;27.986;2023-04-28T02:52:08;100204.72;;;5.31;73.16
10310;BME280;5200;43.236;27.986;2023-04-28T02:54:35;100201.69;;;5.24;73.08
10310;BME280;5200;43.236;27.986;2023-04-28T02:57:01;100211.72;;;5.30;73.67
10310;BME280;5200;43.236;27.986;2023-04-28T02:59:29;100214.41;;;5.29;73.27
10310;BME280;5200;43.236;27.986;2023-04-28T03:01:56;100210.44;;;5.23;73.18
10310;BME280;5200;43.236;27.986;2023-04-28T03:04:23;100206.59;;;5.29;73.20
10310;BME280;5200;43.236;27.986;2023-04-28T03:06:51;100197.25;;;5.12;73.34
10310;BME280;5200;43.236;27.986;2023-04-28T03:09:18;100200.25;;;5.06;73.58
10310;BME280;5200;43.236;27.986;2023-04-28T03:11:45;100225.63;;;5.17;73.62
10310;BME280;5200;43.236;27.986;2023-04-28T03:14:12;100202.94;;;5.04;73.75
10310;BME280;5200;43.236;27.986;2023-04-28T03:16:38;100246.97;;;5.23;73.89
10310;BME280;5200;43.236;27.986;2023-04-28T03:19:05;100241.13;;;5.20;73.94
10310;BME280;5200;43.236;27.986;2023-04-28T03:21:32;100244.44;;;5.22;74.33
10310;BME280;5200;43.236;27.986;2023-04-28T03:24:00;100249.47;;;5.25;74.16
10310;BME280;5200;43.236;27.986;2023-04-28T03:26:27;100258.13;;;5.53;74.37
10310;BME280;5200;43.236;27.986;2023-04-28T03:28:54;100260.38;;;5.99;71.56
10310;BME280;5200;43.236;27.986;2023-04-28T03:31:21;100237.94;;;6.34;68.98
10310;BME280;5200;43.236;27.986;2023-04-28T03:33:48;100243.63;;;6.91;66.46
10310;BME280;5200;43.236;27.986;2023-04-28T03:36:15;100257.44;;;7.54;63.86
10310;BME280;5200;43.236;27.986;2023-04-28T03:38:42;100251.28;;;8.01;60.54
10310;BME280;5200;43.236;27.986;2023-04-28T03:41:10;100252.66;;;8.30;59.26
10310;BME280;5200;43.236;27.986;2023-04-28T03:43:37;100265.94;;;8.62;56.96
10310;BME280;5200;43.236;27.986;2023-04-28T03:46:04;100257.94;;;8.86;59.01
10310;BME280;5200;43.236;27.986;2023-04-28T03:48:31;100267.91;;;9.26;59.28
10310;BME280;5200;43.236;27.986;2023-04-28T03:50:57;100267.25;;;9.56;56.64
10310;BME280;5200;43.236;27.986;2023-04-28T03:53:24;100280.16;;;9.80;55.66
10310;BME280;5200;43.236;27.986;2023-04-28T03:55:51;100281.72;;;10.04;54.82
10310;BME280;5200;43.236;27.986;2023-04-28T03:58:19;100277.19;;;10.27;52.60
10310;BME280;5200;43.236;27.986;2023-04-28T04:00:46;100282.97;;;10.42;51.70
10310;BME280;5200;43.236;27.986;2023-04-28T04:03:13;100281.16;;;10.63;50.85
10310;BME280;5200;43.236;27.986;2023-04-28T04:05:40;100283.41;;;10.68;50.59
10310;BME280;5200;43.236;27.986;2023-04-28T04:08:07;100275.16;;;10.51;50.33
10310;BME280;5200;43.236;27.986;2023-04-28T04:10:33;100274.78;;;10.35;50.05
10310;BME280;5200;43.236;27.986;2023-04-28T04:13:00;100282.44;;;10.27;49.31
10310;BME280;5200;43.236;27.986;2023-04-28T04:15:29;100285.41;;;10.12;50.08
10310;BME280;5200;43.236;27.986;2023-04-28T04:17:55;100279.63;;;10.19;50.57
10310;BME280;5200;43.236;27.986;2023-04-28T04:20:22;100286.03;;;10.26;49.96
10310;BME280;5200;43.236;27.986;2023-04-28T04:22:49;100287.84;;;10.46;50.04
10310;BME280;5200;43.236;27.986;2023-04-28T04:25:16;100289.19;;;10.41;49.29
10310;BME280;5200;43.236;27.986;2023-04-28T04:27:43;100287.66;;;10.38;49.55
10310;BME280;5200;43.236;27.986;2023-04-28T04:30:10;100288.53;;;10.48;49.03
10310;BME280;5200;43.236;27.986;2023-04-28T04:32:38;100285.50;;;10.74;47.65
10310;BME280;5200;43.236;27.986;2023-04-28T04:35:05;100291.09;;;10.60;48.10
10310;BME280;5200;43.236;27.986;2023-04-28T04:37:32;100291.22;;;10.58;47.72
10310;BME280;5200;43.236;27.986;2023-04-28T04:39:59;100286.28;;;10.65;48.08
10310;BME280;5200;43.236;27.986;2023-04-28T04:42:26;100295.75;;;10.77;48.24
10310;BME280;5200;43.236;27.986;2023-04-28T04:44:53;100291.09;;;10.90;47.98
10310;BME280;5200;43.236;27.986;2023-04-28T04:47:20;100279.25;;;11.06;47.11
10310;BME280;5200;43.236;27.986;2023-04-28T04:49:48;100276.22;;;11.10;46.67
10310;BME280;5200;43.236;27.986;2023-04-28T04:52:15;100272.09;;;11.27;46.30
10310;BME280;5200;43.236;27.986;2023-04-28T04:54:42;100271.56;;;11.43;46.65
10310;BME280;5200;43.236;27.986;2023-04-28T04:57:09;100278.78;;;11.51;44.84
10310;BME280;5200;43.236;27.986;2023-04-28T04:59:36;100284.59;;;11.54;45.57
10310;BME280;5200;43.236;27.986;2023-04-28T05:02:03;100287.25;;;11.64;45.35
10310;BME280;5200;43.236;27.986;2023-04-28T05:04:30;100281.31;;;11.81;44.61
10310;BME280;5200;43.236;27.986;2023-04-28T05:06:58;100281.59;;;11.98;43.57
10310;BME280;5200;43.236;27.986;2023-04-28T05:09:25;100282.72;;;12.05;42.62
10310;BME280;5200;43.236;27.986;2023-04-28T05:11:52;100280.22;;;11.94;43.04
10310;BME280;5200;43.236;27.986;2023-04-28T05:14:20;100275.22;;;12.00;42.82
10310;BME280;5200;43.236;27.986;2023-04-28T05:16:46;100280.75;;;12.07;43.94
10310;BME280;5200;43.236;27.986;2023-04-28T05:19:13;100278.25;;;12.15;42.22
10310;BME280;5200;43.236;27.986;2023-04-28T05:21:40;100294.34;;;12.12;43.20
10310;BME280;5200;43.236;27.986;2023-04-28T05:24:08;100299.34;;;12.35;42.67
10310;BME280;5200;43.236;27.986;2023-04-28T05:26:35;100292.06;;;12.56;41.93
10310;BME280;5200;43.236;27.986;2023-04-28T05:29:02;100289.50;;;12.64;39.88
10310;BME280;5200;43.236;27.986;2023-04-28T05:31:29;100300.84;;;12.37;40.73
10310;BME280;5200;43.236;27.986;2023-04-28T05:33:55;100283.78;;;12.32;41.54
10310;BME280;5200;43.236;27.986;2023-04-28T05:36:23;100286.56;;;12.20;40.35
10310;BME280;5200;43.236;27.986;2023-04-28T05:38:50;100295.47;;;12.19;40.74
10310;BME280;5200;43.236;27.986;2023-04-28T05:41:18;100292.97;;;12.27;39.98
10310;BME280;5200;43.236;27.986;2023-04-28T05:43:45;100286.84;;;12.17;40.65
10310;BME280;5200;43.236;27.986;2023-04-28T05:46:12;100294.63;;;12.19;40.60
10310;BME280;5200;43.236;27.986;2023-04-28T05:48:39;100289.88;;;12.22;40.28
10310;BME280;5200;43.236;27.986;2023-04-28T05:51:05;100287.25;;;12.22;40.56
10310;BME280;5200;43.236;27.986;2023-04-28T05:53:32;100299.88;;;12.29;41.07
10310;BME280;5200;43.236;27.986;2023-04-28T05:55:59;100308.72;;;12.57;41.42
10310;BME280;5200;43.236;27.986;2023-04-28T05:58:27;100294.06;;;12.72;39.72
10310;BME280;5200;43.236;27.986;2023-04-28T06:00:54;100296.72;;;12.72;39.54
10310;BME280;5200;43.236;27.986;2023-04-28T06:03:21;100279.97;;;12.44;40.17
10310;BME280;5200;43.236;27.986;2023-04-28T06:05:48;100293.19;;;12.54;39.99
10310;BME280;5200;43.236;27.986;2023-04-28T06:08:15;100278.09;;;12.74;39.52
10310;BME280;5200;43.236;27.986;2023-04-28T06:10:42;100293.03;;;12.93;40.22
10310;BME280;5200;43.236;27.986;2023-04-28T06:13:08;100299.75;;;13.15;40.03
10310;BME280;5200;43.236;27.986;2023-04-28T06:15:37;100307.59;;;13.34;38.57
10310;BME280;5200;43.236;27.986;2023-04-28T06:18:04;100292.69;;;13.05;39.40
10310;BME280;5200;43.236;27.986;2023-04-28T06:20:31;100303.94;;;13.35;39.13
10310;BME280;5200;43.236;27.986;2023-04-28T06:22:58;100281.44;;;13.31;38.56
10310;BME280;5200;43.236;27.986;2023-04-28T06:25:25;100273.09;;;13.53;38.40
10310;BME280;5200;43.236;27.986;2023-04-28T06:27:52;100303.72;;;13.74;37.51
10310;BME280;5200;43.236;27.986;2023-04-28T06:30:20;100287.13;;;13.54;38.04
10310;BME280;5200;43.236;27.986;2023-04-28T06:32:50;100295.94;;;13.55;37.75
10310;BME280;5200;43.236;27.986;2023-04-28T06:35:17;100311.81;;;13.45;38.59
10310;BME280;5200;43.236;27.986;2023-04-28T06:37:44;100292.53;;;13.07;38.12
10310;BME280;5200;43.236;27.986;2023-04-28T06:40:10;100269.00;;;13.14;39.03
10310;BME280;5200;43.236;27.986;2023-04-28T06:42:37;100283.38;;;13.39;38.81
10310;BME280;5200;43.236;27.986;2023-04-28T06:45:05;100262.28;;;13.19;38.07
10310;BME280;5200;43.236;27.986;2023-04-28T06:47:32;100301.19;;;13.37;38.83
10310;BME280;5200;43.236;27.986;2023-04-28T06:50:00;100303.53;;;13.02;38.30
10310;BME280;5200;43.236;27.986;2023-04-28T06:52:27;100307.31;;;13.00;39.19
10310;BME280;5200;43.236;27.986;2023-04-28T06:54:55;100278.63;;;13.05;39.26
10310;BME280;5200;43.236;27.986;2023-04-28T06:57:22;100279.97;;;13.19;38.99
10310;BME280;5200;43.236;27.986;2023-04-28T06:59:49;100305.56;;;13.46;39.01
10310;BME280;5200;43.236;27.986;2023-04-28T07:02:15;100287.69;;;13.58;38.27
10310;BME280;5200;43.236;27.986;2023-04-28T07:04:42;100291.53;;;13.45;38.57
10310;BME280;5200;43.236;27.986;2023-04-28T07:07:11;100263.16;;;13.20;37.67
10310;BME280;5200;43.236;27.986;2023-04-28T07:09:37;100319.88;;;13.16;38.47
10310;BME280;5200;43.236;27.986;2023-04-28T07:12:05;100286.81;;;13.11;39.35
10310;BME280;5200;43.236;27.986;2023-04-28T07:14:32;100283.66;;;13.26;38.48
10310;BME280;5200;43.236;27.986;2023-04-28T07:16:59;100286.00;;;13.57;38.29
10310;BME280;5200;43.236;27.986;2023-04-28T07:19:25;100294.63;;;13.77;37.68
10310;BME280;5200;43.236;27.986;2023-04-28T07:21:52;100310.72;;;13.65;36.78
10310;BME280;5200;43.236;27.986;2023-04-28T07:24:21;100294.19;;;13.45;36.52
10310;BME280;5200;43.236;27.986;2023-04-28T07:26:49;100278.31;;;13.45;36.70
10310;BME280;5200;43.236;27.986;2023-04-28T07:29:15;100266.38;;;13.41;35.53
10310;BME280;5200;43.236;27.986;2023-04-28T07:31:42;100291.28;;;13.39;35.67
10310;BME280;5200;43.236;27.986;2023-04-28T07:34:09;100316.16;;;13.46;35.63
10310;BME280;5200;43.236;27.986;2023-04-28T07:36:36;100298.72;;;13.53;35.56
10310;BME280;5200;43.236;27.986;2023-04-28T07:39:03;100305.19;;;13.59;36.83
10310;BME280;5200;43.236;27.986;2023-04-28T07:41:35;100297.44;;;13.93;34.84
10310;BME280;5200;43.236;27.986;2023-04-28T07:44:02;100305.19;;;13.94;35.08
10310;BME280;5200;43.236;27.986;2023-04-28T07:46:30;100305.66;;;14.08;35.49
10310;BME280;5200;43.236;27.986;2023-04-28T07:48:57;100297.47;;;14.19;33.85
10310;BME280;5200;43.236;27.986;2023-04-28T07:51:24;100307.56;;;14.42;34.84
10310;BME280;5200;43.236;27.986;2023-04-28T07:53:51;100299.66;;;14.50;32.67
10310;BME280;5200;43.236;27.986;2023-04-28T07:56:18;100304.13;;;14.23;33.53
10310;BME280;5200;43.236;27.986;2023-04-28T07:58:47;100269.16;;;13.93;34.49
10310;BME280;5200;43.236;27.986;2023-04-28T08:01:14;100285.72;;;13.95;34.34
10310;BME280;5200;43.236;27.986;2023-04-28T08:03:41;100291.22;;;13.84;34.55
10310;BME280;5200;43.236;27.986;2023-04-28T08:06:08;100300.25;;;13.73;34.66
10310;BME280;5200;43.236;27.986;2023-04-28T08:08:35;100279.06;;;13.91;35.40
10310;BME280;5200;43.236;27.986;2023-04-28T08:11:02;100298.34;;;14.02;35.17
10310;BME280;5200;43.236;27.986;2023-04-28T08:13:29;100293.91;;;14.10;35.27
10310;BME280;5200;43.236;27.986;2023-04-28T08:15:58;100296.19;;;14.05;35.50
10310;BME280;5200;43.236;27.986;2023-04-28T08:18:26;100298.50;;;14.26;35.23
10310;BME280;5200;43.236;27.986;2023-04-28T08:20:53;100274.34;;;14.21;35.07
10310;BME280;5200;43.236;27.986;2023-04-28T08:23:20;100278.06;;;14.36;35.51
10310;BME280;5200;43.236;27.986;2023-04-28T08:25:48;100281.28;;;14.48;35.18
10310;BME280;5200;43.236;27.986;2023-04-28T08:28:15;100283.47;;;14.27;35.39
10310;BME280;5200;43.236;27.986;2023-04-28T08:30:42;100247.88;;;13.77;35.93
10310;BME280;5200;43.236;27.986;2023-04-28T08:33:11;100250.66;;;13.93;35.49
10310;BME280;5200;43.236;27.986;2023-04-28T08:35:37;100259.84;;;14.07;35.26
10310;BME280;5200;43.236;27.986;2023-04-28T08:38:05;100280.13;;;14.25;35.20
10310;BME280;5200;43.236;27.986;2023-04-28T08:40:38;100247.19;;;14.19;35.28
10310;BME280;5200;43.236;27.986;2023-04-28T08:43:05;100276.63;;;14.68;35.22
10310;BME280;5200;43.236;27.986;2023-04-28T08:45:39;100255.47;;;14.76;33.73
10310;BME280;5200;43.236;27.986;2023-04-28T08:48:16;100270.16;;;14.97;32.19
10310;BME280;5200;43.236;27.986;2023-04-28T08:50:48;100277.13;;;15.06;31.91
10310;BME280;5200;43.236;27.986;2023-04-28T08:53:20;100278.91;;;14.89;31.79
10310;BME280;5200;43.236;27.986;2023-04-28T08:55:49;100253.31;;;14.72;32.16
10310;BME280;5200;43.236;27.986;2023-04-28T08:58:16;100272.44;;;14.57;32.57
10310;BME280;5200;43.236;27.986;2023-04-28T09:00:44;100255.94;;;14.72;31.84
10310;BME280;5200;43.236;27.986;2023-04-28T09:03:11;100218.44;;;14.85;31.13
10310;BME280;5200;43.236;27.986;2023-04-28T09:05:40;100229.09;;;15.09;31.20
10310;BME280;5200;43.236;27.986;2023-04-28T09:08:07;100253.38;;;15.39;32.04
10310;BME280;5200;43.236;27.986;2023-04-28T09:10:36;100265.19;;;15.69;31.59
10310;BME280;5200;43.236;27.986;2023-04-28T09:13:03;100270.88;;;15.23;30.60
10310;BME280;5200;43.236;27.986;2023-04-28T09:15:31;100259.81;;;14.77;31.89
10310;BME280;5200;43.236;27.986;2023-04-28T09:17:59;100236.44;;;14.73;31.94
10310;BME280;5200;43.236;27.986;2023-04-28T09:20:27;100252.81;;;14.76;31.61
10310;BME280;5200;43.236;27.986;2023-04-28T09:23:11;100242.97;;;14.87;32.12
10310;BME280;5200;43.236;27.986;2023-04-28T09:25:38;100249.00;;;15.05;32.03
10310;BME280;5200;43.236;27.986;2023-04-28T09:28:18;100231.22;;;14.97;31.34
10310;BME280;5200;43.236;27.986;2023-04-28T09:30:46;100246.44;;;14.95;31.08
10310;BME280;5200;43.236;27.986;2023-04-28T09:33:13;100231.41;;;14.96;32.41
10310;BME280;5200;43.236;27.986;2023-04-28T09:35:40;100239.41;;;15.20;31.93
10310;BME280;5200;43.236;27.986;2023-04-28T09:38:09;100236.31;;;15.33;31.20
10310;BME280;5200;43.236;27.986;2023-04-28T09:40:48;100229.06;;;14.93;31.55
10310;BME280;5200;43.236;27.986;2023-04-28T09:43:22;100241.47;;;14.92;31.92
10310;BME280;5200;43.236;27.986;2023-04-28T09:45:50;100216.22;;;14.72;32.07
10310;BME280;5200;43.236;27.986;2023-04-28T09:48:25;100234.91;;;14.62;32.93
10310;BME280;5200;43.236;27.986;2023-04-28T09:50:53;100237.31;;;14.82;32.43
10310;BME280;5200;43.236;27.986;2023-04-28T09:53:22;100237.72;;;15.11;32.52
10310;BME280;5200;43.236;27.986;2023-04-28T09:55:51;100230.06;;;14.92;31.48
10310;BME280;5200;43.236;27.986;2023-04-28T09:58:19;100220.56;;;14.73;32.44
10310;BME280;5200;43.236;27.986;2023-04-28T10:00:51;100235.50;;;14.90;32.28
10310;BME280;5200;43.236;27.986;2023-04-28T10:03:21;100224.22;;;15.39;31.81
10310;BME280;5200;43.236;27.986;2023-04-28T10:05:50;100203.03;;;15.55;31.96
10310;BME280;5200;43.236;27.986;2023-04-28T10:08:18;100227.88;;;15.62;30.77
10310;BME280;5200;43.236;27.986;2023-04-28T10:10:48;100234.78;;;15.22;31.62
10310;BME280;5200;43.236;27.986;2023-04-28T10:13:17;100213.09;;;15.27;31.63
10310;BME280;5200;43.236;27.986;2023-04-28T10:15:45;100221.06;;;15.52;31.94
10310;BME280;5200;43.236;27.986;2023-04-28T10:18:12;100230.16;;;15.33;31.32
10310;BME280;5200;43.236;27.986;2023-04-28T10:20:41;100194.16;;;15.06;31.98
10310;BME280;5200;43.236;27.986;2023-04-28T10:23:35;100223.50;;;15.20;31.70
10310;BME280;5200;43.236;27.986;2023-04-28T10:26:10;100196.63;;;15.07;31.62
10310;BME280;5200;43.236;27.986;2023-04-28T10:28:44;100210.13;;;15.47;31.27
10310;BME280;5200;43.236;27.986;2023-04-28T10:31:12;100218.59;;;15.50;30.79
10310;BME280;5200;43.236;27.986;2023-04-28T10:33:40;100224.91;;;15.57;30.79
10310;BME280;5200;43.236;27.986;2023-04-28T10:36:08;100220.25;;;15.68;30.90
10310;BME280;5200;43.236;27.986;2023-04-28T10:38:36;100214.63;;;15.71;31.13
10310;BME280;5200;43.236;27.986;2023-04-28T10:41:35;100204.28;;;15.18;31.63
10310;BME280;5200;43.236;27.986;2023-04-28T10:47:03;100221.72;;;15.29;31.01
10310;BME280;5200;43.236;27.986;2023-04-28T10:52:49;100232.66;;;15.42;30.21
10310;BME280;5200;43.236;27.986;2023-04-28T10:55:29;100216.88;;;15.08;30.31
10310;BME280;5200;43.236;27.986;2023-04-28T10:58:33;100217.16;;;14.97;31.13
10310;BME280;5200;43.236;27.986;2023-04-28T11:01:23;100211.53;;;15.00;31.55
10310;BME280;5200;43.236;27.986;2023-04-28T11:03:50;100208.13;;;15.24;32.09
10310;BME280;5200;43.236;27.986;2023-04-28T11:06:19;100217.59;;;15.68;30.83
10310;BME280;5200;43.236;27.986;2023-04-28T11:08:49;100223.94;;;15.75;30.38
10310;BME280;5200;43.236;27.986;2023-04-28T11:11:21;100207.94;;;15.26;30.57
10310;BME280;5200;43.236;27.986;2023-04-28T11:13:51;100206.72;;;14.95;31.33
10310;BME280;5200;43.236;27.986;2023-04-28T11:16:21;100207.47;;;14.71;31.02
10310;BME280;5200;43.236;27.986;2023-04-28T11:18:56;100200.53;;;14.70;32.13
10310;BME280;5200;43.236;27.986;2023-04-28T11:21:24;100216.59;;;15.36;31.59
10310;BME280;5200;43.236;27.986;2023-04-28T11:23:53;100217.66;;;15.76;30.73
10310;BME280;5200;43.236;27.986;2023-04-28T11:26:20;100216.97;;;15.82;30.50
10310;BME280;5200;43.236;27.986;2023-04-28T11:28:51;100223.09;;;15.91;30.97
10310;BME280;5200;43.236;27.986;2023-04-28T11:31:18;100220.28;;;16.09;30.41
10310;BME280;5200;43.236;27.986;2023-04-28T11:33:55;100213.59;;;16.29;30.40
10310;BME280;5200;43.236;27.986;2023-04-28T11:36:27;100199.59;;;16.43;29.16
10310;BME280;5200;43.236;27.986;2023-04-28T11:38:58;100200.72;;;16.57;30.12
10310;BME280;5200;43.236;27.986;2023-04-28T11:41:26;100205.63;;;16.37;30.51
10310;BME280;5200;43.236;27.986;2023-04-28T11:43:54;100218.88;;;16.29;30.99
10310;BME280;5200;43.236;27.986;2023-04-28T11:46:22;100205.25;;;16.48;29.59
10310;BME280;5200;43.236;27.986;2023-04-28T11:49:00;100210.22;;;16.43;29.67
10310;BME280;5200;43.236;27.986;2023-04-28T11:51:29;100202.66;;;16.32;29.76
10310;BME280;5200;43.236;27.986;2023-04-28T11:53:58;100208.66;;;16.10;30.74
10310;BME280;5200;43.236;27.986;2023-04-28T11:56:25;100204.84;;;16.04;29.92
10310;BME280;5200;43.236;27.986;2023-04-28T11:59:04;100218.25;;;15.53;30.29
10310;BME280;5200;43.236;27.986;2023-04-28T12:01:33;100203.34;;;15.44;30.55
10310;BME280;5200;43.236;27.986;2023-04-28T12:04:02;100196.53;;;15.66;31.35
10310;BME280;5200;43.236;27.986;2023-04-28T12:06:29;100195.22;;;16.03;31.00
10310;BME280;5200;43.236;27.986;2023-04-28T12:08:56;100202.38;;;16.02;31.09
10310;BME280;5200;43.236;27.986;2023-04-28T12:11:29;100196.38;;;16.00;31.36
10310;BME280;5200;43.236;27.986;2023-04-28T12:14:04;100198.03;;;16.01;30.19
10310;BME280;5200;43.236;27.986;2023-04-28T12:16:42;100192.44;;;15.72;30.37
10310;BME280;5200;43.236;27.986;2023-04-28T12:19:10;100185.09;;;15.65;30.73
10310;BME280;5200;43.236;27.986;2023-04-28T12:21:40;100184.78;;;15.69;30.81
10310;BME280;5200;43.236;27.986;2023-04-28T12:24:18;100195.69;;;15.33;30.71
10310;BME280;5200;43.236;27.986;2023-04-28T12:26:47;100172.19;;;15.21;31.13
10310;BME280;5200;43.236;27.986;2023-04-28T12:29:36;100173.16;;;15.12;30.91
10310;BME280;5200;43.236;27.986;2023-04-28T12:32:04;100177.75;;;14.94;31.05
10310;BME280;5200;43.236;27.986;2023-04-28T12:34:32;100176.69;;;14.78;32.12
10310;BME280;5200;43.236;27.986;2023-04-28T12:36:59;100196.59;;;14.91;32.33
10310;BME280;5200;43.236;27.986;2023-04-28T12:39:26;100163.59;;;14.69;32.49
10310;BME280;5200;43.236;27.986;2023-04-28T12:41:53;100140.88;;;14.24;32.59
10310;BME280;5200;43.236;27.986;2023-04-28T12:44:20;100165.09;;;14.37;33.02
10310;BME280;5200;43.236;27.986;2023-04-28T12:46:50;100173.56;;;14.75;32.01
10310;BME280;5200;43.236;27.986;2023-04-28T12:49:17;100172.78;;;14.99;32.55
10310;BME280;5200;43.236;27.986;2023-04-28T12:51:44;100164.38;;;15.20;31.71
10310;BME280;5200;43.236;27.986;2023-04-28T12:54:11;100170.00;;;15.25;32.34
10310;BME280;5200;43.236;27.986;2023-04-28T12:56:39;100155.59;;;15.19;31.52
10310;BME280;5200;43.236;27.986;2023-04-28T12:59:05;100186.06;;;15.23;32.38
10310;BME280;5200;43.236;27.986;2023-04-28T13:01:33;100174.50;;;15.25;31.86
10310;BME280;5200;43.236;27.986;2023-04-28T13:04:01;100171.69;;;15.34;31.55